sensor_id;sensor_type;location;lat;lon;timestamp;P1;durP1;ratioP1;P2;durP2;ratioP2
944;SDS011;459;48.676;9.034;2023-12-20T00:00:07;0.83;;;0.83;;
944;SDS011;459;48.676;9.034;2023-12-20T00:02:33;1.40;;;1.30;;
944;SDS011;459;48.676;9.034;2023-12-20T00:04:58;1.27;;;1.17;;
944;SDS011;459;48.676;9.034;2023-12-20T00:07:23;0.57;;;0.57;;
944;SDS011;459;48.676;9.034;2023-12-20T00:09:48;1.43;;;1.23;;
944;SDS011;459;48.676;9.034;2023-12-20T00:12:13;2.37;;;2.17;;
944;SDS011;459;48.676;9.034;2023-12-20T00:14:39;1.40;;;1.10;;
944;SDS011;459;48.676;9.034;2023-12-20T00:17:04;1.10;;;0.70;;
944;SDS011;459;48.676;9.034;2023-12-20T00:19:29;0.70;;;0.70;;
944;SDS011;459;48.676;9.034;2023-12-20T00:21:54;0.90;;;0.80;;
944;SDS011;459;48.676;9.034;2023-12-20T00:24:19;1.00;;;0.87;;
944;SDS011;459;48.676;9.034;2023-12-20T00:26:45;0.97;;;0.90;;
944;SDS011;459;48.676;9.034;2023-12-20T00:29:10;1.10;;;1.00;;
944;SDS011;459;48.676;9.034;2023-12-20T00:31:36;1.30;;;0.83;;
944;SDS011;459;48.676;9.034;2023-12-20T00:34:01;0.80;;;0.80;;
944;SDS011;459;48.676;9.034;2023-12-20T00:36:26;0.93;;;0.80;;
944;SDS011;459;48.676;9.034;2023-12-20T00:38:51;2.00;;;1.23;;
944;SDS011;459;48.676;9.034;2023-12-20T00:41:16;1.03;;;0.90;;
944;SDS011;459;48.676;9.034;2023-12-20T00:43:42;1.10;;;1.00;;
944;SDS011;459;48.676;9.034;2023-12-20T00:46:07;0.70;;;0.70;;
944;SDS011;459;48.676;9.034;2023-12-20T00:48:32;1.03;;;0.97;;
944;SDS011;459;48.676;9.034;2023-12-20T00:50:58;1.23;;;1.10;;
944;SDS011;459;48.676;9.034;2023-12-20T00:53:23;1.00;;;0.90;;
944;SDS011;459;48.676;9.034;2023-12-20T00:55:48;1.10;;;1.00;;
944;SDS011;459;48.676;9.034;2023-12-20T00:58:13;0.83;;;0.83;;
944;SDS011;459;48.676;9.034;2023-12-20T01:00:40;1.30;;;1.20;;
944;SDS011;459;48.676;9.034;2023-12-20T01:03:06;1.30;;;1.00;;
944;SDS011;459;48.676;9.034;2023-12-20T01:05:31;1.63;;;1.30;;
944;SDS011;459;48.676;9.034;2023-12-20T01:07:56;1.95;;;1.63;;
944;SDS011;459;48.676;9.034;2023-12-20T01:10:22;1.10;;;0.90;;
944;SDS011;459;48.676;9.034;2023-12-20T01:12:47;0.90;;;0.90;;
944;SDS011;459;48.676;9.034;2023-12-20T01:15:13;0.87;;;0.87;;
944;SDS011;459;48.676;9.034;2023-12-20T01:17:38;1.37;;;1.17;;
944;SDS011;459;48.676;9.034;2023-12-20T01:20:03;1.13;;;1.03;;
944;SDS011;459;48.676;9.034;2023-12-20T01:22:28;0.80;;;0.80;;
944;SDS011;459;48.676;9.034;2023-12-20T01:24:53;1.30;;;1.10;;
944;SDS011;459;48.676;9.034;2023-12-20T01:27:19;1.97;;;1.37;;
944;SDS011;459;48.676;9.034;2023-12-20T01:29:44;1.30;;;1.20;;
944;SDS011;459;48.676;9.034;2023-12-20T01:32:09;0.93;;;0.93;;
944;SDS011;459;48.676;9.034;2023-12-20T01:34:34;0.93;;;0.93;;
944;SDS011;459;48.676;9.034;2023-12-20T01:37:00;0.70;;;0.70;;
944;SDS011;459;48.676;9.034;2023-12-20T01:39:26;1.00;;;0.73;;
944;SDS011;459;48.676;9.034;2023-12-20T01:41:51;1.10;;;1.00;;
944;SDS011;459;48.676;9.034;2023-12-20T01:44:16;0.80;;;0.60;;
944;SDS011;459;48.676;9.034;2023-12-20T01:46:42;1.20;;;1.10;;
944;SDS011;459;48.676;9.034;2023-12-20T01:49:07;1.23;;;0.87;;
944;SDS011;459;48.676;9.034;2023-12-20T01:51:33;0.70;;;0.70;;
944;SDS011;459;48.676;9.034;2023-12-20T01:53:58;0.90;;;0.80;;
944;SDS011;459;48.676;9.034;2023-12-20T01:56:24;1.47;;;1.00;;
944;SDS011;459;48.676;9.034;2023-12-20T01:58:50;1.27;;;1.10;;
944;SDS011;459;48.676;9.034;2023-12-20T02:01:15;0.67;;;0.60;;
944;SDS011;459;48.676;9.034;2023-12-20T02:03:41;1.07;;;0.90;;
944;SDS011;459;48.676;9.034;2023-12-20T02:06:07;0.70;;;0.50;;
944;SDS011;459;48.676;9.034;2023-12-20T02:08:32;1.40;;;0.87;;
944;SDS011;459;48.676;9.034;2023-12-20T02:10:57;0.40;;;0.40;;
944;SDS011;459;48.676;9.034;2023-12-20T02:13:22;0.70;;;0.70;;
944;SDS011;459;48.676;9.034;2023-12-20T02:15:47;1.33;;;0.80;;
944;SDS011;459;48.676;9.034;2023-12-20T02:18:13;1.03;;;0.70;;
944;SDS011;459;48.676;9.034;2023-12-20T02:20:40;0.60;;;0.60;;
944;SDS011;459;48.676;9.034;2023-12-20T02:23:05;0.90;;;0.60;;
944;SDS011;459;48.676;9.034;2023-12-20T02:25:31;0.97;;;0.70;;
944;SDS011;459;48.676;9.034;2023-12-20T02:27:56;0.70;;;0.70;;
944;SDS011;459;48.676;9.034;2023-12-20T02:30:21;0.70;;;0.70;;
944;SDS011;459;48.676;9.034;2023-12-20T02:32:46;0.63;;;0.60;;
944;SDS011;459;48.676;9.034;2023-12-20T02:35:12;0.50;;;0.50;;
944;SDS011;459;48.676;9.034;2023-12-20T02:37:37;0.50;;;0.50;;
944;SDS011;459;48.676;9.034;2023-12-20T02:40:02;0.70;;;0.50;;
944;SDS011;459;48.676;9.034;2023-12-20T02:42:29;0.90;;;0.50;;
944;SDS011;459;48.676;9.034;2023-12-20T02:44:54;0.60;;;0.50;;
944;SDS011;459;48.676;9.034;2023-12-20T02:47:19;0.50;;;0.50;;
944;SDS011;459;48.676;9.034;2023-12-20T02:49:44;0.37;;;0.33;;
944;SDS011;459;48.676;9.034;2023-12-20T02:52:09;0.50;;;0.50;;
944;SDS011;459;48.676;9.034;2023-12-20T02:54:35;0.40;;;0.40;;
944;SDS011;459;48.676;9.034;2023-12-20T02:57:00;0.80;;;0.60;;
944;SDS011;459;48.676;9.034;2023-12-20T02:59:25;0.50;;;0.50;;
944;SDS011;459;48.676;9.034;2023-12-20T03:01:50;0.50;;;0.40;;
944;SDS011;459;48.676;9.034;2023-12-20T03:04:15;0.47;;;0.40;;
944;SDS011;459;48.676;9.034;2023-12-20T03:06:40;0.67;;;0.67;;
944;SDS011;459;48.676;9.034;2023-12-20T03:09:06;0.40;;;0.33;;
944;SDS011;459;48.676;9.034;2023-12-20T03:11:31;0.53;;;0.50;;
944;SDS011;459;48.676;9.034;2023-12-20T03:13:56;0.50;;;0.50;;
944;SDS011;459;48.676;9.034;2023-12-20T03:16:22;0.50;;;0.43;;
944;SDS011;459;48.676;9.034;2023-12-20T03:18:47;0.60;;;0.50;;
944;SDS011;459;48.676;9.034;2023-12-20T03:21:12;0.70;;;0.50;;
944;SDS011;459;48.676;9.034;2023-12-20T03:23:37;0.50;;;0.40;;
944;SDS011;459;48.676;9.034;2023-12-20T03:26:03;0.43;;;0.40;;
944;SDS011;459;48.676;9.034;2023-12-20T03:28:29;0.40;;;0.40;;
944;SDS011;459;48.676;9.034;2023-12-20T03:30:54;0.43;;;0.43;;
944;SDS011;459;48.676;9.034;2023-12-20T03:33:19;0.40;;;0.40;;
944;SDS011;459;48.676;9.034;2023-12-20T03:35:45;0.70;;;0.40;;
944;SDS011;459;48.676;9.034;2023-12-20T03:38:10;0.47;;;0.30;;
944;SDS011;459;48.676;9.034;2023-12-20T03:40:35;1.07;;;0.50;;
944;SDS011;459;48.676;9.034;2023-12-20T03:43:01;0.40;;;0.37;;
944;SDS011;459;48.676;9.034;2023-12-20T03:45:26;0.50;;;0.30;;
944;SDS011;459;48.676;9.034;2023-12-20T03:47:51;0.30;;;0.30;;
944;SDS011;459;48.676;9.034;2023-12-20T03:50:24;0.60;;;0.40;;
944;SDS011;459;48.676;9.034;2023-12-20T03:52:50;0.30;;;0.30;;
944;SDS011;459;48.676;9.034;2023-12-20T03:55:15;1.13;;;0.30;;
944;SDS011;459;48.676;9.034;2023-12-20T03:57:40;0.43;;;0.43;;
944;SDS011;459;48.676;9.034;2023-12-20T04:00:06;0.70;;;0.50;;
944;SDS011;459;48.676;9.034;2023-12-20T04:02:35;0.40;;;0.37;;
944;SDS011;459;48.676;9.034;2023-12-20T04:05:00;1.17;;;0.40;;
944;SDS011;459;48.676;9.034;2023-12-20T04:07:25;0.40;;;0.40;;
944;SDS011;459;48.676;9.034;2023-12-20T04:09:51;0.40;;;0.30;;
944;SDS011;459;48.676;9.034;2023-12-20T04:12:16;0.53;;;0.43;;
944;SDS011;459;48.676;9.034;2023-12-20T04:14:41;0.93;;;0.40;;
944;SDS011;459;48.676;9.034;2023-12-20T04:17:06;0.30;;;0.30;;
944;SDS011;459;48.676;9.034;2023-12-20T04:19:32;0.30;;;0.30;;
944;SDS011;459;48.676;9.034;2023-12-20T04:21:57;0.30;;;0.30;;
944;SDS011;459;48.676;9.034;2023-12-20T04:24:22;0.37;;;0.37;;
944;SDS011;459;48.676;9.034;2023-12-20T04:26:47;0.30;;;0.30;;
944;SDS011;459;48.676;9.034;2023-12-20T04:29:13;0.40;;;0.40;;
944;SDS011;459;48.676;9.034;2023-12-20T04:31:38;0.40;;;0.33;;
944;SDS011;459;48.676;9.034;2023-12-20T04:34:03;0.88;;;0.50;;
944;SDS011;459;48.676;9.034;2023-12-20T04:36:28;0.30;;;0.30;;
944;SDS011;459;48.676;9.034;2023-12-20T04:38:55;0.40;;;0.40;;
944;SDS011;459;48.676;9.034;2023-12-20T04:41:20;0.50;;;0.40;;
944;SDS011;459;48.676;9.034;2023-12-20T04:43:45;0.53;;;0.33;;
944;SDS011;459;48.676;9.034;2023-12-20T04:46:10;0.40;;;0.40;;
944;SDS011;459;48.676;9.034;2023-12-20T04:48:35;0.40;;;0.40;;
944;SDS011;459;48.676;9.034;2023-12-20T04:51:00;0.30;;;0.30;;
944;SDS011;459;48.676;9.034;2023-12-20T04:53:26;0.70;;;0.50;;
944;SDS011;459;48.676;9.034;2023-12-20T04:55:51;2.43;;;0.40;;
944;SDS011;459;48.676;9.034;2023-12-20T04:58:16;0.40;;;0.30;;
944;SDS011;459;48.676;9.034;2023-12-20T05:00:42;0.40;;;0.30;;
944;SDS011;459;48.676;9.034;2023-12-20T05:03:07;0.67;;;0.47;;
944;SDS011;459;48.676;9.034;2023-12-20T05:05:33;0.63;;;0.40;;
944;SDS011;459;48.676;9.034;2023-12-20T05:07:58;0.40;;;0.30;;
944;SDS011;459;48.676;9.034;2023-12-20T05:10:23;0.40;;;0.37;;
944;SDS011;459;48.676;9.034;2023-12-20T05:12:48;0.38;;;0.38;;
944;SDS011;459;48.676;9.034;2023-12-20T05:15:13;0.60;;;0.50;;
944;SDS011;459;48.676;9.034;2023-12-20T05:17:39;0.73;;;0.50;;
944;SDS011;459;48.676;9.034;2023-12-20T05:20:04;0.30;;;0.30;;
944;SDS011;459;48.676;9.034;2023-12-20T05:22:29;1.13;;;0.40;;
944;SDS011;459;48.676;9.034;2023-12-20T05:24:55;1.43;;;0.60;;
944;SDS011;459;48.676;9.034;2023-12-20T05:27:20;1.43;;;0.40;;
944;SDS011;459;48.676;9.034;2023-12-20T05:29:45;0.67;;;0.50;;
944;SDS011;459;48.676;9.034;2023-12-20T05:32:10;0.47;;;0.47;;
944;SDS011;459;48.676;9.034;2023-12-20T05:34:35;0.40;;;0.33;;
944;SDS011;459;48.676;9.034;2023-12-20T05:37:01;0.40;;;0.40;;
944;SDS011;459;48.676;9.034;2023-12-20T05:39:27;0.40;;;0.30;;
944;SDS011;459;48.676;9.034;2023-12-20T05:41:52;0.63;;;0.40;;
944;SDS011;459;48.676;9.034;2023-12-20T05:44:17;0.50;;;0.43;;
944;SDS011;459;48.676;9.034;2023-12-20T05:46:42;0.70;;;0.63;;
944;SDS011;459;48.676;9.034;2023-12-20T05:49:07;3.60;;;0.47;;
944;SDS011;459;48.676;9.034;2023-12-20T05:51:33;4.07;;;2.60;;
944;SDS011;459;48.676;9.034;2023-12-20T05:53:58;0.30;;;0.30;;
944;SDS011;459;48.676;9.034;2023-12-20T05:56:23;0.60;;;0.50;;
944;SDS011;459;48.676;9.034;2023-12-20T05:58:48;1.00;;;0.40;;
944;SDS011;459;48.676;9.034;2023-12-20T06:01:14;0.50;;;0.40;;
944;SDS011;459;48.676;9.034;2023-12-20T06:03:41;0.50;;;0.50;;
944;SDS011;459;48.676;9.034;2023-12-20T06:06:06;0.83;;;0.50;;
944;SDS011;459;48.676;9.034;2023-12-20T06:08:32;1.00;;;0.53;;
944;SDS011;459;48.676;9.034;2023-12-20T06:10:57;0.40;;;0.40;;
944;SDS011;459;48.676;9.034;2023-12-20T06:13:22;0.80;;;0.80;;
944;SDS011;459;48.676;9.034;2023-12-20T06:15:47;0.60;;;0.60;;
944;SDS011;459;48.676;9.034;2023-12-20T06:18:12;0.50;;;0.50;;
944;SDS011;459;48.676;9.034;2023-12-20T06:20:38;0.73;;;0.60;;
944;SDS011;459;48.676;9.034;2023-12-20T06:23:03;1.47;;;1.00;;
944;SDS011;459;48.676;9.034;2023-12-20T06:25:28;0.90;;;0.83;;
944;SDS011;459;48.676;9.034;2023-12-20T06:27:53;0.87;;;0.87;;
944;SDS011;459;48.676;9.034;2023-12-20T06:30:19;0.70;;;0.70;;
944;SDS011;459;48.676;9.034;2023-12-20T06:32:44;0.67;;;0.67;;
944;SDS011;459;48.676;9.034;2023-12-20T06:35:11;0.90;;;0.90;;
944;SDS011;459;48.676;9.034;2023-12-20T06:37:36;0.67;;;0.63;;
944;SDS011;459;48.676;9.034;2023-12-20T06:40:02;1.00;;;0.90;;
944;SDS011;459;48.676;9.034;2023-12-20T06:42:27;1.37;;;0.60;;
944;SDS011;459;48.676;9.034;2023-12-20T06:44:52;0.60;;;0.60;;
944;SDS011;459;48.676;9.034;2023-12-20T06:47:17;0.80;;;0.80;;
944;SDS011;459;48.676;9.034;2023-12-20T06:49:43;2.80;;;0.80;;
944;SDS011;459;48.676;9.034;2023-12-20T06:52:08;0.80;;;0.80;;
944;SDS011;459;48.676;9.034;2023-12-20T06:54:33;0.70;;;0.70;;
944;SDS011;459;48.676;9.034;2023-12-20T06:56:59;0.80;;;0.70;;
944;SDS011;459;48.676;9.034;2023-12-20T06:59:24;1.83;;;1.43;;
944;SDS011;459;48.676;9.034;2023-12-20T07:01:50;0.80;;;0.80;;
944;SDS011;459;48.676;9.034;2023-12-20T07:04:16;1.60;;;0.70;;
944;SDS011;459;48.676;9.034;2023-12-20T07:06:45;1.00;;;0.70;;
944;SDS011;459;48.676;9.034;2023-12-20T07:09:10;0.77;;;0.60;;
944;SDS011;459;48.676;9.034;2023-12-20T07:11:35;0.87;;;0.70;;
944;SDS011;459;48.676;9.034;2023-12-20T07:14:00;0.60;;;0.60;;
944;SDS011;459;48.676;9.034;2023-12-20T07:16:26;0.93;;;0.87;;
944;SDS011;459;48.676;9.034;2023-12-20T07:18:51;0.97;;;0.73;;
944;SDS011;459;48.676;9.034;2023-12-20T07:21:17;2.00;;;0.70;;
944;SDS011;459;48.676;9.034;2023-12-20T07:23:43;1.67;;;0.80;;
944;SDS011;459;48.676;9.034;2023-12-20T07:26:08;0.60;;;0.60;;
944;SDS011;459;48.676;9.034;2023-12-20T07:28:33;0.90;;;0.70;;
944;SDS011;459;48.676;9.034;2023-12-20T07:30:58;0.90;;;0.70;;
944;SDS011;459;48.676;9.034;2023-12-20T07:33:23;0.60;;;0.60;;
944;SDS011;459;48.676;9.034;2023-12-20T07:35:49;2.37;;;0.90;;
944;SDS011;459;48.676;9.034;2023-12-20T07:38:14;1.50;;;1.00;;
944;SDS011;459;48.676;9.034;2023-12-20T07:40:39;0.77;;;0.70;;
944;SDS011;459;48.676;9.034;2023-12-20T07:43:04;1.17;;;1.07;;
944;SDS011;459;48.676;9.034;2023-12-20T07:45:29;1.37;;;1.27;;
944;SDS011;459;48.676;9.034;2023-12-20T07:47:55;1.20;;;1.10;;
944;SDS011;459;48.676;9.034;2023-12-20T07:50:20;2.37;;;1.60;;
944;SDS011;459;48.676;9.034;2023-12-20T07:52:45;5.13;;;1.53;;
944;SDS011;459;48.676;9.034;2023-12-20T07:55:10;4.30;;;2.30;;
944;SDS011;459;48.676;9.034;2023-12-20T07:57:35;2.30;;;2.10;;
944;SDS011;459;48.676;9.034;2023-12-20T08:00:01;3.40;;;2.77;;
944;SDS011;459;48.676;9.034;2023-12-20T08:02:26;4.87;;;3.43;;
944;SDS011;459;48.676;9.034;2023-12-20T08:04:51;2.57;;;2.37;;
944;SDS011;459;48.676;9.034;2023-12-20T08:07:16;3.03;;;2.70;;
944;SDS011;459;48.676;9.034;2023-12-20T08:09:41;3.23;;;2.90;;
944;SDS011;459;48.676;9.034;2023-12-20T08:12:08;3.70;;;2.80;;
944;SDS011;459;48.676;9.034;2023-12-20T08:14:34;4.10;;;3.50;;
944;SDS011;459;48.676;9.034;2023-12-20T08:16:59;3.73;;;3.40;;
944;SDS011;459;48.676;9.034;2023-12-20T08:19:24;4.77;;;3.63;;
944;SDS011;459;48.676;9.034;2023-12-20T08:21:50;5.43;;;4.93;;
944;SDS011;459;48.676;9.034;2023-12-20T08:24:16;3.33;;;3.00;;
944;SDS011;459;48.676;9.034;2023-12-20T08:26:41;3.60;;;3.30;;
944;SDS011;459;48.676;9.034;2023-12-20T08:29:06;3.20;;;2.87;;
944;SDS011;459;48.676;9.034;2023-12-20T08:31:32;3.67;;;3.33;;
944;SDS011;459;48.676;9.034;2023-12-20T08:33:57;6.73;;;2.60;;
944;SDS011;459;48.676;9.034;2023-12-20T08:36:22;3.17;;;2.80;;
944;SDS011;459;48.676;9.034;2023-12-20T08:38:48;2.87;;;2.57;;
944;SDS011;459;48.676;9.034;2023-12-20T08:41:13;5.97;;;2.70;;
944;SDS011;459;48.676;9.034;2023-12-20T08:43:38;2.53;;;2.33;;
944;SDS011;459;48.676;9.034;2023-12-20T08:46:07;3.30;;;2.73;;
944;SDS011;459;48.676;9.034;2023-12-20T08:48:34;2.90;;;2.70;;
944;SDS011;459;48.676;9.034;2023-12-20T08:50:59;3.30;;;3.00;;
944;SDS011;459;48.676;9.034;2023-12-20T08:53:25;6.00;;;2.80;;
944;SDS011;459;48.676;9.034;2023-12-20T08:55:50;3.33;;;3.00;;
944;SDS011;459;48.676;9.034;2023-12-20T08:58:15;4.40;;;2.67;;
944;SDS011;459;48.676;9.034;2023-12-20T09:00:40;4.10;;;2.43;;
944;SDS011;459;48.676;9.034;2023-12-20T09:03:05;2.83;;;2.53;;
944;SDS011;459;48.676;9.034;2023-12-20T09:05:31;3.70;;;3.10;;
944;SDS011;459;48.676;9.034;2023-12-20T09:07:56;2.80;;;2.00;;
944;SDS011;459;48.676;9.034;2023-12-20T09:10:21;2.27;;;2.07;;
944;SDS011;459;48.676;9.034;2023-12-20T09:12:53;3.90;;;2.30;;
944;SDS011;459;48.676;9.034;2023-12-20T09:15:25;2.10;;;1.60;;
944;SDS011;459;48.676;9.034;2023-12-20T09:17:50;4.00;;;2.30;;
944;SDS011;459;48.676;9.034;2023-12-20T09:20:15;2.47;;;2.27;;
944;SDS011;459;48.676;9.034;2023-12-20T09:22:41;2.93;;;2.23;;
944;SDS011;459;48.676;9.034;2023-12-20T09:25:07;7.23;;;2.13;;
944;SDS011;459;48.676;9.034;2023-12-20T09:27:32;2.87;;;2.10;;
944;SDS011;459;48.676;9.034;2023-12-20T09:29:57;2.43;;;1.80;;
944;SDS011;459;48.676;9.034;2023-12-20T09:32:22;2.57;;;2.37;;
944;SDS011;459;48.676;9.034;2023-12-20T09:34:47;2.43;;;1.60;;
944;SDS011;459;48.676;9.034;2023-12-20T09:37:13;1.73;;;1.63;;
944;SDS011;459;48.676;9.034;2023-12-20T09:39:38;3.73;;;2.27;;
944;SDS011;459;48.676;9.034;2023-12-20T09:42:04;2.57;;;1.80;;
944;SDS011;459;48.676;9.034;2023-12-20T09:44:29;3.73;;;2.20;;
944;SDS011;459;48.676;9.034;2023-12-20T09:46:55;2.20;;;1.97;;
944;SDS011;459;48.676;9.034;2023-12-20T09:49:21;0.97;;;0.90;;
944;SDS011;459;48.676;9.034;2023-12-20T09:51:47;2.63;;;2.10;;
944;SDS011;459;48.676;9.034;2023-12-20T09:54:16;2.40;;;1.50;;
944;SDS011;459;48.676;9.034;2023-12-20T09:56:41;3.50;;;1.90;;
944;SDS011;459;48.676;9.034;2023-12-20T09:59:07;2.67;;;1.97;;
944;SDS011;459;48.676;9.034;2023-12-20T10:01:32;2.43;;;1.37;;
944;SDS011;459;48.676;9.034;2023-12-20T10:03:58;2.23;;;1.40;;
944;SDS011;459;48.676;9.034;2023-12-20T10:06:25;3.83;;;2.07;;
944;SDS011;459;48.676;9.034;2023-12-20T10:08:50;2.13;;;1.50;;
944;SDS011;459;48.676;9.034;2023-12-20T10:11:15;4.60;;;1.60;;
944;SDS011;459;48.676;9.034;2023-12-20T10:13:41;2.43;;;1.20;;
944;SDS011;459;48.676;9.034;2023-12-20T10:16:06;2.07;;;0.97;;
944;SDS011;459;48.676;9.034;2023-12-20T10:18:32;3.60;;;1.67;;
944;SDS011;459;48.676;9.034;2023-12-20T10:20:57;5.10;;;2.53;;
944;SDS011;459;48.676;9.034;2023-12-20T10:23:23;2.50;;;1.30;;
944;SDS011;459;48.676;9.034;2023-12-20T10:25:58;1.83;;;1.57;;
944;SDS011;459;48.676;9.034;2023-12-20T10:28:23;4.00;;;1.60;;
944;SDS011;459;48.676;9.034;2023-12-20T10:30:52;1.97;;;1.23;;
944;SDS011;459;48.676;9.034;2023-12-20T10:33:24;3.10;;;1.47;;
944;SDS011;459;48.676;9.034;2023-12-20T10:35:50;7.70;;;2.13;;
944;SDS011;459;48.676;9.034;2023-12-20T10:38:15;5.20;;;4.03;;
944;SDS011;459;48.676;9.034;2023-12-20T10:40:41;1.17;;;1.17;;
944;SDS011;459;48.676;9.034;2023-12-20T10:43:06;5.30;;;1.30;;
944;SDS011;459;48.676;9.034;2023-12-20T10:45:33;3.90;;;1.67;;
944;SDS011;459;48.676;9.034;2023-12-20T10:47:58;4.87;;;1.30;;
944;SDS011;459;48.676;9.034;2023-12-20T10:50:25;1.47;;;1.13;;
944;SDS011;459;48.676;9.034;2023-12-20T10:52:51;1.53;;;1.20;;
944;SDS011;459;48.676;9.034;2023-12-20T10:55:20;1.83;;;1.53;;
944;SDS011;459;48.676;9.034;2023-12-20T10:57:45;4.30;;;1.43;;
944;SDS011;459;48.676;9.034;2023-12-20T11:00:15;2.43;;;1.40;;
944;SDS011;459;48.676;9.034;2023-12-20T11:02:41;1.53;;;1.43;;
944;SDS011;459;48.676;9.034;2023-12-20T11:05:14;4.30;;;1.70;;
944;SDS011;459;48.676;9.034;2023-12-20T11:07:48;2.23;;;1.47;;
944;SDS011;459;48.676;9.034;2023-12-20T11:10:21;1.67;;;1.50;;
944;SDS011;459;48.676;9.034;2023-12-20T11:12:52;1.07;;;1.00;;
944;SDS011;459;48.676;9.034;2023-12-20T11:15:19;1.67;;;1.57;;
944;SDS011;459;48.676;9.034;2023-12-20T11:17:44;1.97;;;1.50;;
944;SDS011;459;48.676;9.034;2023-12-20T11:20:11;2.37;;;1.67;;
944;SDS011;459;48.676;9.034;2023-12-20T11:22:37;3.60;;;1.47;;
944;SDS011;459;48.676;9.034;2023-12-20T11:27:28;1.37;;;1.13;;
944;SDS011;459;48.676;9.034;2023-12-20T11:29:56;2.00;;;1.80;;
944;SDS011;459;48.676;9.034;2023-12-20T11:34:46;2.50;;;1.83;;
944;SDS011;459;48.676;9.034;2023-12-20T11:37:12;1.40;;;1.17;;
944;SDS011;459;48.676;9.034;2023-12-20T11:39:38;1.40;;;1.07;;
944;SDS011;459;48.676;9.034;2023-12-20T11:42:06;8.57;;;1.93;;
944;SDS011;459;48.676;9.034;2023-12-20T11:44:32;4.33;;;1.70;;
944;SDS011;459;48.676;9.034;2023-12-20T11:46:58;1.57;;;1.47;;
944;SDS011;459;48.676;9.034;2023-12-20T11:49:23;1.40;;;1.20;;
944;SDS011;459;48.676;9.034;2023-12-20T11:51:49;1.07;;;0.87;;
944;SDS011;459;48.676;9.034;2023-12-20T11:54:15;3.20;;;2.90;;
944;SDS011;459;48.676;9.034;2023-12-20T11:56:40;1.10;;;1.00;;
944;SDS011;459;48.676;9.034;2023-12-20T11:59:07;2.30;;;2.07;;
944;SDS011;459;48.676;9.034;2023-12-20T12:01:32;5.30;;;1.63;;
944;SDS011;459;48.676;9.034;2023-12-20T12:04:06;2.47;;;1.57;;
944;SDS011;459;48.676;9.034;2023-12-20T12:06:32;2.23;;;1.53;;
944;SDS011;459;48.676;9.034;2023-12-20T12:08:57;2.70;;;1.70;;
944;SDS011;459;48.676;9.034;2023-12-20T12:11:22;5.60;;;2.50;;
944;SDS011;459;48.676;9.034;2023-12-20T12:13:48;6.70;;;2.07;;
944;SDS011;459;48.676;9.034;2023-12-20T12:16:16;2.63;;;0.90;;
944;SDS011;459;48.676;9.034;2023-12-20T12:18:41;3.33;;;1.97;;
944;SDS011;459;48.676;9.034;2023-12-20T12:21:07;3.30;;;2.30;;
944;SDS011;459;48.676;9.034;2023-12-20T12:23:32;4.60;;;1.27;;
944;SDS011;459;48.676;9.034;2023-12-20T12:25:57;3.00;;;1.33;;
944;SDS011;459;48.676;9.034;2023-12-20T12:28:25;2.57;;;1.30;;
944;SDS011;459;48.676;9.034;2023-12-20T12:30:57;2.20;;;1.53;;
944;SDS011;459;48.676;9.034;2023-12-20T12:33:22;1.93;;;0.87;;
944;SDS011;459;48.676;9.034;2023-12-20T12:35:48;2.77;;;1.37;;
944;SDS011;459;48.676;9.034;2023-12-20T12:38:13;5.90;;;1.60;;
944;SDS011;459;48.676;9.034;2023-12-20T12:40:38;1.10;;;0.90;;
944;SDS011;459;48.676;9.034;2023-12-20T12:43:03;2.73;;;1.17;;
944;SDS011;459;48.676;9.034;2023-12-20T12:45:29;3.63;;;1.60;;
944;SDS011;459;48.676;9.034;2023-12-20T12:47:54;5.67;;;1.63;;
944;SDS011;459;48.676;9.034;2023-12-20T12:50:20;1.47;;;0.87;;
944;SDS011;459;48.676;9.034;2023-12-20T12:52:46;3.70;;;1.70;;
944;SDS011;459;48.676;9.034;2023-12-20T12:55:12;1.70;;;1.10;;
944;SDS011;459;48.676;9.034;2023-12-20T12:57:37;2.03;;;1.33;;
944;SDS011;459;48.676;9.034;2023-12-20T13:00:02;2.30;;;1.33;;
944;SDS011;459;48.676;9.034;2023-12-20T13:02:28;3.10;;;1.43;;
944;SDS011;459;48.676;9.034;2023-12-20T13:04:53;2.27;;;1.00;;
944;SDS011;459;48.676;9.034;2023-12-20T13:07:18;2.10;;;0.80;;
944;SDS011;459;48.676;9.034;2023-12-20T13:09:43;10.93;;;1.87;;
944;SDS011;459;48.676;9.034;2023-12-20T13:12:09;2.67;;;1.40;;
944;SDS011;459;48.676;9.034;2023-12-20T13:14:34;5.63;;;1.60;;
944;SDS011;459;48.676;9.034;2023-12-20T13:17:03;3.17;;;1.17;;
944;SDS011;459;48.676;9.034;2023-12-20T13:19:28;2.23;;;1.47;;
944;SDS011;459;48.676;9.034;2023-12-20T13:21:55;1.00;;;0.87;;
944;SDS011;459;48.676;9.034;2023-12-20T13:24:20;2.00;;;1.63;;
944;SDS011;459;48.676;9.034;2023-12-20T13:26:45;4.50;;;1.30;;
944;SDS011;459;48.676;9.034;2023-12-20T13:29:10;4.23;;;1.40;;
944;SDS011;459;48.676;9.034;2023-12-20T13:31:37;4.87;;;1.07;;
944;SDS011;459;48.676;9.034;2023-12-20T13:34:02;2.03;;;1.20;;
944;SDS011;459;48.676;9.034;2023-12-20T13:36:27;3.20;;;1.53;;
944;SDS011;459;48.676;9.034;2023-12-20T13:38:52;5.27;;;1.40;;
944;SDS011;459;48.676;9.034;2023-12-20T13:41:18;1.57;;;1.17;;
944;SDS011;459;48.676;9.034;2023-12-20T13:43:43;4.10;;;1.23;;
944;SDS011;459;48.676;9.034;2023-12-20T13:46:08;5.27;;;1.30;;
944;SDS011;459;48.676;9.034;2023-12-20T13:48:34;1.43;;;1.20;;
944;SDS011;459;48.676;9.034;2023-12-20T13:50:59;1.53;;;1.07;;
944;SDS011;459;48.676;9.034;2023-12-20T13:53:25;2.70;;;0.90;;
944;SDS011;459;48.676;9.034;2023-12-20T13:55:50;2.08;;;1.20;;
944;SDS011;459;48.676;9.034;2023-12-20T13:58:15;2.13;;;1.10;;
944;SDS011;459;48.676;9.034;2023-12-20T14:00:40;1.60;;;1.03;;
944;SDS011;459;48.676;9.034;2023-12-20T14:03:06;3.03;;;1.20;;
944;SDS011;459;48.676;9.034;2023-12-20T14:05:31;1.90;;;0.97;;
944;SDS011;459;48.676;9.034;2023-12-20T14:07:58;1.97;;;1.20;;
944;SDS011;459;48.676;9.034;2023-12-20T14:10:23;2.53;;;1.10;;
944;SDS011;459;48.676;9.034;2023-12-20T14:12:51;1.50;;;1.40;;
944;SDS011;459;48.676;9.034;2023-12-20T14:15:16;3.50;;;1.60;;
944;SDS011;459;48.676;9.034;2023-12-20T14:17:41;4.00;;;1.33;;
944;SDS011;459;48.676;9.034;2023-12-20T14:20:07;6.50;;;1.30;;
944;SDS011;459;48.676;9.034;2023-12-20T14:22:33;1.60;;;0.70;;
944;SDS011;459;48.676;9.034;2023-12-20T14:24:58;0.70;;;0.70;;
944;SDS011;459;48.676;9.034;2023-12-20T14:27:23;7.63;;;2.63;;
944;SDS011;459;48.676;9.034;2023-12-20T14:29:52;1.03;;;0.93;;
944;SDS011;459;48.676;9.034;2023-12-20T14:32:17;1.80;;;1.20;;
944;SDS011;459;48.676;9.034;2023-12-20T14:34:42;1.53;;;1.43;;
944;SDS011;459;48.676;9.034;2023-12-20T14:37:08;1.40;;;1.23;;
944;SDS011;459;48.676;9.034;2023-12-20T14:39:33;2.77;;;1.23;;
944;SDS011;459;48.676;9.034;2023-12-20T14:41:58;1.60;;;1.07;;
944;SDS011;459;48.676;9.034;2023-12-20T14:44:23;1.53;;;0.83;;
944;SDS011;459;48.676;9.034;2023-12-20T14:46:48;1.47;;;1.00;;
944;SDS011;459;48.676;9.034;2023-12-20T14:49:14;1.00;;;0.90;;
944;SDS011;459;48.676;9.034;2023-12-20T14:51:39;1.60;;;1.10;;
944;SDS011;459;48.676;9.034;2023-12-20T14:54:05;2.40;;;1.50;;
944;SDS011;459;48.676;9.034;2023-12-20T14:56:34;4.87;;;1.10;;
944;SDS011;459;48.676;9.034;2023-12-20T14:59:00;1.60;;;1.50;;
944;SDS011;459;48.676;9.034;2023-12-20T15:01:26;3.30;;;1.30;;
944;SDS011;459;48.676;9.034;2023-12-20T15:03:51;2.33;;;1.40;;
944;SDS011;459;48.676;9.034;2023-12-20T15:06:16;2.87;;;1.00;;
944;SDS011;459;48.676;9.034;2023-12-20T15:08:41;1.53;;;1.20;;
944;SDS011;459;48.676;9.034;2023-12-20T15:11:06;2.47;;;1.50;;
944;SDS011;459;48.676;9.034;2023-12-20T15:13:31;1.50;;;1.20;;
944;SDS011;459;48.676;9.034;2023-12-20T15:15:57;2.77;;;2.03;;
944;SDS011;459;48.676;9.034;2023-12-20T15:18:23;3.50;;;1.50;;
944;SDS011;459;48.676;9.034;2023-12-20T15:20:48;5.50;;;1.33;;
944;SDS011;459;48.676;9.034;2023-12-20T15:23:14;1.80;;;1.10;;
944;SDS011;459;48.676;9.034;2023-12-20T15:25:39;2.00;;;1.23;;
944;SDS011;459;48.676;9.034;2023-12-20T15:28:05;2.53;;;0.90;;
944;SDS011;459;48.676;9.034;2023-12-20T15:30:30;1.27;;;1.00;;
944;SDS011;459;48.676;9.034;2023-12-20T15:32:55;3.60;;;1.47;;
944;SDS011;459;48.676;9.034;2023-12-20T15:35:21;0.87;;;0.70;;
944;SDS011;459;48.676;9.034;2023-12-20T15:37:46;2.97;;;1.63;;